sensor_id;sensor_type;location;lat;lon;timestamp;pressure;altitude;pressure_sealevel;temperature;humidity
45523;BME280;31254;51.680;5.394;2022-10-13T00:00:03;101957.25;;;11.88;77.74
45523;BME280;31254;51.680;5.394;2022-10-13T00:02:30;101950.94;;;11.87;77.58
45523;BME280;31254;51.680;5.394;2022-10-13T00:04:57;101879.41;;;11.50;77.86
45523;BME280;31254;51.680;5.394;2022-10-13T00:07:26;101951.53;;;11.91;77.49
45523;BME280;31254;51.680;5.394;2022-10-13T00:09:52;101949.56;;;11.93;78.09
45523;BME280;31254;51.680;5.394;2022-10-13T00:12:20;101940.59;;;11.91;78.16
45523;BME280;31254;51.680;5.394;2022-10-13T00:14:47;101901.28;;;11.71;78.17
45523;BME280;31254;51.680;5.394;2022-10-13T00:17:15;101925.97;;;11.92;78.20
45523;BME280;31254;51.680;5.394;2022-10-13T00:19:42;101920.50;;;11.92;78.45
45523;BME280;31254;51.680;5.394;2022-10-13T00:22:09;101899.25;;;11.84;78.60
45523;BME280;31254;51.680;5.394;2022-10-13T00:24:40;101930.03;;;11.98;78.73
45523;BME280;31254;51.680;5.394;2022-10-13T00:27:07;101928.03;;;12.00;78.37
45523;BME280;31254;51.680;5.394;2022-10-13T00:29:34;101900.56;;;11.90;78.49
45523;BME280;31254;51.680;5.394;2022-10-13T00:32:00;101902.56;;;11.88;78.57
45523;BME280;31254;51.680;5.394;2022-10-13T00:34:29;101924.28;;;12.01;78.46
45523;BME280;31254;51.680;5.394;2022-10-13T00:36:57;101908.91;;;11.88;78.68
45523;BME280;31254;51.680;5.394;2022-10-13T00:39:24;101918.22;;;11.97;78.78
45523;BME280;31254;51.680;5.394;2022-10-13T00:41:56;101929.38;;;12.05;78.87
45523;BME280;31254;51.680;5.394;2022-10-13T00:47:39;101928.34;;;12.06;79.08
45523;BME280;31254;51.680;5.394;2022-10-13T00:50:10;101926.25;;;12.10;78.81
45523;BME280;31254;51.680;5.394;2022-10-13T00:52:40;101933.41;;;12.11;79.13
45523;BME280;31254;51.680;5.394;2022-10-13T00:55:09;101925.47;;;12.08;78.83
45523;BME280;31254;51.680;5.394;2022-10-13T00:57:41;101894.88;;;11.93;79.08
45523;BME280;31254;51.680;5.394;2022-10-13T01:00:13;101925.34;;;12.10;79.29
45523;BME280;31254;51.680;5.394;2022-10-13T01:02:40;101921.88;;;12.07;79.27
45523;BME280;31254;51.680;5.394;2022-10-13T01:05:07;101924.63;;;12.07;79.56
45523;BME280;31254;51.680;5.394;2022-10-13T01:07:36;101927.22;;;12.09;79.35
45523;BME280;31254;51.680;5.394;2022-10-13T01:10:03;101930.09;;;12.07;79.43
45523;BME280;31254;51.680;5.394;2022-10-13T01:12:44;101917.28;;;12.08;79.57
45523;BME280;31254;51.680;5.394;2022-10-13T01:32:14;101920.00;;;12.08;79.89
45523;BME280;31254;51.680;5.394;2022-10-13T01:37:53;101892.50;;;11.88;79.79
45523;BME280;31254;51.680;5.394;2022-10-13T01:43:07;101884.69;;;11.84;80.11
45523;BME280;31254;51.680;5.394;2022-10-13T01:45:41;101883.44;;;11.88;80.15
45523;BME280;31254;51.680;5.394;2022-10-13T01:48:10;101872.31;;;11.80;80.06
45523;BME280;31254;51.680;5.394;2022-10-13T01:50:37;101855.91;;;11.80;79.98
45523;BME280;31254;51.680;5.394;2022-10-13T01:53:05;101905.06;;;12.12;80.21
45523;BME280;31254;51.680;5.394;2022-10-13T01:55:32;101911.41;;;12.13;80.34
45523;BME280;31254;51.680;5.394;2022-10-13T01:57:59;101903.06;;;12.14;80.32
45523;BME280;31254;51.680;5.394;2022-10-13T02:00:30;101908.28;;;12.17;80.37
45523;BME280;31254;51.680;5.394;2022-10-13T02:08:54;101887.88;;;12.21;80.27
45523;BME280;31254;51.680;5.394;2022-10-13T02:11:24;101858.25;;;12.05;80.45
45523;BME280;31254;51.680;5.394;2022-10-13T02:14:15;101880.38;;;12.23;80.40
45523;BME280;31254;51.680;5.394;2022-10-13T02:16:48;101874.06;;;12.23;80.33
45523;BME280;31254;51.680;5.394;2022-10-13T02:19:17;101867.56;;;12.24;80.21
45523;BME280;31254;51.680;5.394;2022-10-13T02:21:44;101876.50;;;12.26;80.31
45523;BME280;31254;51.680;5.394;2022-10-13T02:24:12;101871.19;;;12.24;80.51
45523;BME280;31254;51.680;5.394;2022-10-13T02:26:40;101850.97;;;12.16;80.51
45523;BME280;31254;51.680;5.394;2022-10-13T02:29:11;101864.81;;;12.24;80.81
45523;BME280;31254;51.680;5.394;2022-10-13T02:31:39;101861.38;;;12.22;80.66
45523;BME280;31254;51.680;5.394;2022-10-13T02:34:06;101816.16;;;11.97;80.56
45523;BME280;31254;51.680;5.394;2022-10-13T02:36:33;101832.34;;;12.10;80.62
45523;BME280;31254;51.680;5.394;2022-10-13T02:39:00;101864.56;;;12.27;81.08
45523;BME280;31254;51.680;5.394;2022-10-13T02:41:29;101852.16;;;12.23;80.90
45523;BME280;31254;51.680;5.394;2022-10-13T02:43:59;101854.34;;;12.29;80.72
45523;BME280;31254;51.680;5.394;2022-10-13T02:46:25;101835.00;;;12.21;80.62
45523;BME280;31254;51.680;5.394;2022-10-13T02:48:52;101838.66;;;12.31;80.81
45523;BME280;31254;51.680;5.394;2022-10-13T02:51:19;101822.47;;;12.18;80.84
45523;BME280;31254;51.680;5.394;2022-10-13T02:53:46;101822.34;;;12.20;80.84
45523;BME280;31254;51.680;5.394;2022-10-13T02:56:13;101841.28;;;12.33;80.95
45523;BME280;31254;51.680;5.394;2022-10-13T02:58:39;101849.94;;;12.38;80.94
45523;BME280;31254;51.680;5.394;2022-10-13T03:01:13;101844.31;;;12.39;81.02
45523;BME280;31254;51.680;5.394;2022-10-13T03:03:40;101838.41;;;12.34;81.00
45523;BME280;31254;51.680;5.394;2022-10-13T03:06:07;101816.47;;;12.24;80.89
45523;BME280;31254;51.680;5.394;2022-10-13T03:08:34;101839.69;;;12.40;81.09
45523;BME280;31254;51.680;5.394;2022-10-13T03:11:01;101835.22;;;12.39;81.19
45523;BME280;31254;51.680;5.394;2022-10-13T03:13:30;101806.06;;;12.18;81.13
45523;BME280;31254;51.680;5.394;2022-10-13T03:15:59;101831.75;;;12.37;81.34
45523;BME280;31254;51.680;5.394;2022-10-13T03:18:26;101826.56;;;12.34;81.19
45523;BME280;31254;51.680;5.394;2022-10-13T03:20:58;101820.97;;;12.35;81.47
45523;BME280;31254;51.680;5.394;2022-10-13T03:23:27;101810.56;;;12.29;81.42
45523;BME280;31254;51.680;5.394;2022-10-13T03:25:55;101837.25;;;12.37;81.75
45523;BME280;31254;51.680;5.394;2022-10-13T03:28:22;101832.63;;;12.37;81.52
45523;BME280;31254;51.680;5.394;2022-10-13T03:30:49;101822.13;;;12.33;81.60
45523;BME280;31254;51.680;5.394;2022-10-13T03:33:16;101806.25;;;12.27;81.60
45523;BME280;31254;51.680;5.394;2022-10-13T03:35:42;101831.50;;;12.40;81.52
45523;BME280;31254;51.680;5.394;2022-10-13T03:38:11;101825.03;;;12.41;81.55
45523;BME280;31254;51.680;5.394;2022-10-13T03:40:38;101819.56;;;12.41;81.67
45523;BME280;31254;51.680;5.394;2022-10-13T03:43:05;101810.59;;;12.39;81.78
45523;BME280;31254;51.680;5.394;2022-10-13T03:45:31;101823.72;;;12.45;81.67
45523;BME280;31254;51.680;5.394;2022-10-13T03:48:00;101804.72;;;12.43;81.63
45523;BME280;31254;51.680;5.394;2022-10-13T03:50:29;101787.13;;;12.36;81.52
45523;BME280;31254;51.680;5.394;2022-10-13T03:52:56;101808.50;;;12.52;81.79
45523;BME280;31254;51.680;5.394;2022-10-13T03:55:23;101807.47;;;12.53;81.82
45523;BME280;31254;51.680;5.394;2022-10-13T03:57:50;101801.00;;;12.54;81.53
45523;BME280;31254;51.680;5.394;2022-10-13T04:00:18;101795.53;;;12.54;81.51
45523;BME280;31254;51.680;5.394;2022-10-13T04:02:48;101761.47;;;12.37;81.80
45523;BME280;31254;51.680;5.394;2022-10-13T04:05:14;101786.13;;;12.47;81.49
45523;BME280;31254;51.680;5.394;2022-10-13T04:07:41;101807.34;;;12.55;81.88
45523;BME280;31254;51.680;5.394;2022-10-13T04:10:08;101802.75;;;12.55;81.87
45523;BME280;31254;51.680;5.394;2022-10-13T04:12:36;101776.75;;;12.40;81.68
45523;BME280;31254;51.680;5.394;2022-10-13T04:15:06;101762.50;;;12.36;82.11
45523;BME280;31254;51.680;5.394;2022-10-13T04:17:33;101788.03;;;12.56;82.18
45523;BME280;31254;51.680;5.394;2022-10-13T04:19:59;101797.84;;;12.59;81.98
45523;BME280;31254;51.680;5.394;2022-10-13T04:22:26;101795.13;;;12.59;82.01
45523;BME280;31254;51.680;5.394;2022-10-13T04:24:53;101798.84;;;12.58;82.04
45523;BME280;31254;51.680;5.394;2022-10-13T04:27:19;101792.38;;;12.59;82.06
45523;BME280;31254;51.680;5.394;2022-10-13T04:29:48;101789.47;;;12.51;82.23
45523;BME280;31254;51.680;5.394;2022-10-13T04:32:15;101801.00;;;12.54;82.22
45523;BME280;31254;51.680;5.394;2022-10-13T04:34:44;101760.03;;;12.33;82.40
45523;BME280;31254;51.680;5.394;2022-10-13T04:37:14;101781.28;;;12.51;82.45
45523;BME280;31254;51.680;5.394;2022-10-13T04:39:40;101765.28;;;12.56;82.43
45523;BME280;31254;51.680;5.394;2022-10-13T04:42:09;101770.75;;;12.56;82.38
45523;BME280;31254;51.680;5.394;2022-10-13T04:44:36;101739.91;;;12.34;82.36
45523;BME280;31254;51.680;5.394;2022-10-13T04:47:03;101752.41;;;12.37;82.57
45523;BME280;31254;51.680;5.394;2022-10-13T04:49:30;101784.84;;;12.41;82.50
45523;BME280;31254;51.680;5.394;2022-10-13T04:51:56;101755.56;;;12.32;82.24
45523;BME280;31254;51.680;5.394;2022-10-13T04:54:25;101790.75;;;12.47;82.54
45523;BME280;31254;51.680;5.394;2022-10-13T04:56:54;101800.44;;;12.51;82.92
45523;BME280;31254;51.680;5.394;2022-10-13T04:59:21;101792.63;;;12.46;82.80
45523;BME280;31254;51.680;5.394;2022-10-13T05:01:52;101774.75;;;12.42;82.73
45523;BME280;31254;51.680;5.394;2022-10-13T05:04:19;101785.44;;;12.55;82.40
45523;BME280;31254;51.680;5.394;2022-10-13T05:06:46;101784.72;;;12.53;82.92
45523;BME280;31254;51.680;5.394;2022-10-13T05:09:32;101769.28;;;12.52;82.81
45523;BME280;31254;51.680;5.394;2022-10-13T05:12:02;101773.34;;;12.48;82.75
45523;BME280;31254;51.680;5.394;2022-10-13T05:14:28;101773.78;;;12.53;82.89
45523;BME280;31254;51.680;5.394;2022-10-13T05:16:56;101736.56;;;12.31;83.03
45523;BME280;31254;51.680;5.394;2022-10-13T05:19:23;101778.25;;;12.54;82.98
45523;BME280;31254;51.680;5.394;2022-10-13T05:21:50;101777.97;;;12.57;82.84
45523;BME280;31254;51.680;5.394;2022-10-13T05:24:16;101748.13;;;12.44;82.85
45523;BME280;31254;51.680;5.394;2022-10-13T05:26:43;101778.56;;;12.60;82.89
45523;BME280;31254;51.680;5.394;2022-10-13T05:29:10;101769.19;;;12.63;83.01
45523;BME280;31254;51.680;5.394;2022-10-13T05:31:39;101760.94;;;12.53;82.91
45523;BME280;31254;51.680;5.394;2022-10-13T05:34:05;101781.03;;;12.64;83.11
45523;BME280;31254;51.680;5.394;2022-10-13T05:36:35;101769.03;;;12.55;83.07
45523;BME280;31254;51.680;5.394;2022-10-13T05:39:03;101787.78;;;12.69;82.94
45523;BME280;31254;51.680;5.394;2022-10-13T05:41:33;101760.94;;;12.53;82.94
45523;BME280;31254;51.680;5.394;2022-10-13T05:44:03;101792.97;;;12.72;83.28
45523;BME280;31254;51.680;5.394;2022-10-13T05:46:30;101790.25;;;12.72;82.98
45523;BME280;31254;51.680;5.394;2022-10-13T05:48:59;101779.56;;;12.69;83.08
45523;BME280;31254;51.680;5.394;2022-10-13T05:51:30;101780.28;;;12.71;83.16
45523;BME280;31254;51.680;5.394;2022-10-13T05:54:06;101747.25;;;12.53;83.33
45523;BME280;31254;51.680;5.394;2022-10-13T05:56:38;101727.53;;;12.50;83.07
45523;BME280;31254;51.680;5.394;2022-10-13T05:59:09;101745.13;;;12.57;82.99
45523;BME280;31254;51.680;5.394;2022-10-13T06:01:41;101770.50;;;12.69;83.30
45523;BME280;31254;51.680;5.394;2022-10-13T06:04:15;101757.38;;;12.62;83.06
45523;BME280;31254;51.680;5.394;2022-10-13T06:06:51;101762.88;;;12.72;83.20
45523;BME280;31254;51.680;5.394;2022-10-13T06:09:18;101752.91;;;12.61;83.23
45523;BME280;31254;51.680;5.394;2022-10-13T06:11:45;101760.13;;;12.72;83.10
45523;BME280;31254;51.680;5.394;2022-10-13T06:14:14;101743.13;;;12.59;83.23
45523;BME280;31254;51.680;5.394;2022-10-13T06:16:41;101738.78;;;12.56;83.23
45523;BME280;31254;51.680;5.394;2022-10-13T06:19:07;101729.88;;;12.64;83.05
45523;BME280;31254;51.680;5.394;2022-10-13T06:21:34;101758.41;;;12.81;82.94
45523;BME280;31254;51.680;5.394;2022-10-13T06:24:01;101700.03;;;12.51;83.02
45523;BME280;31254;51.680;5.394;2022-10-13T06:26:30;101757.25;;;12.84;83.06
45523;BME280;31254;51.680;5.394;2022-10-13T06:28:58;101764.34;;;12.86;83.12
45523;BME280;31254;51.680;5.394;2022-10-13T06:31:28;101735.91;;;12.68;83.03
45523;BME280;31254;51.680;5.394;2022-10-13T06:33:55;101736.19;;;12.74;83.13
45523;BME280;31254;51.680;5.394;2022-10-13T06:36:21;101763.44;;;12.86;82.86
45523;BME280;31254;51.680;5.394;2022-10-13T06:38:49;101760.00;;;12.93;82.89
45523;BME280;31254;51.680;5.394;2022-10-13T06:41:16;101755.38;;;12.94;82.96
45523;BME280;31254;51.680;5.394;2022-10-13T06:43:43;101753.38;;;12.96;82.86
45523;BME280;31254;51.680;5.394;2022-10-13T06:46:10;101712.31;;;12.76;82.79
45523;BME280;31254;51.680;5.394;2022-10-13T06:48:38;101748.34;;;13.01;82.85
45523;BME280;31254;51.680;5.394;2022-10-13T06:51:08;101747.31;;;13.02;82.81
45523;BME280;31254;51.680;5.394;2022-10-13T06:53:35;101737.53;;;12.99;82.48
45523;BME280;31254;51.680;5.394;2022-10-13T06:56:04;101738.66;;;13.07;82.93
45523;BME280;31254;51.680;5.394;2022-10-13T06:58:33;101741.13;;;13.10;82.77
45523;BME280;31254;51.680;5.394;2022-10-13T07:01:00;101752.06;;;13.10;82.82
45523;BME280;31254;51.680;5.394;2022-10-13T07:03:27;101721.06;;;13.19;83.02
45523;BME280;31254;51.680;5.394;2022-10-13T07:06:04;101742.28;;;13.27;83.12
45523;BME280;31254;51.680;5.394;2022-10-13T07:08:35;101722.50;;;13.13;82.73
45523;BME280;31254;51.680;5.394;2022-10-13T07:11:06;101752.34;;;13.26;82.76
45523;BME280;31254;51.680;5.394;2022-10-13T07:13:41;101761.03;;;13.31;82.48
45523;BME280;31254;51.680;5.394;2022-10-13T07:16:13;101762.47;;;13.35;82.32
45523;BME280;31254;51.680;5.394;2022-10-13T07:18:40;101727.25;;;13.21;81.94
45523;BME280;31254;51.680;5.394;2022-10-13T07:21:07;101736.06;;;13.25;82.26
45523;BME280;31254;51.680;5.394;2022-10-13T07:23:34;101754.97;;;13.38;82.09
45523;BME280;31254;51.680;5.394;2022-10-13T07:26:11;101747.78;;;13.37;81.97
45523;BME280;31254;51.680;5.394;2022-10-13T07:28:39;101757.84;;;13.36;82.23
45523;BME280;31254;51.680;5.394;2022-10-13T07:31:15;101752.66;;;13.33;82.27
45523;BME280;31254;51.680;5.394;2022-10-13T07:33:50;101751.50;;;13.35;82.15
45523;BME280;31254;51.680;5.394;2022-10-13T07:36:19;101732.59;;;13.23;82.34
45523;BME280;31254;51.680;5.394;2022-10-13T07:38:46;101748.63;;;13.37;82.08
45523;BME280;31254;51.680;5.394;2022-10-13T07:41:13;101723.25;;;13.25;82.27
45523;BME280;31254;51.680;5.394;2022-10-13T07:43:40;101750.94;;;13.42;82.16
45523;BME280;31254;51.680;5.394;2022-10-13T07:46:08;101733.78;;;13.40;81.99
45523;BME280;31254;51.680;5.394;2022-10-13T07:48:35;101741.72;;;13.43;81.90
45523;BME280;31254;51.680;5.394;2022-10-13T07:51:06;101739.53;;;13.46;82.12
45523;BME280;31254;51.680;5.394;2022-10-13T07:53:34;101751.47;;;13.55;82.06
45523;BME280;31254;51.680;5.394;2022-10-13T07:56:02;101746.41;;;13.60;81.84
45523;BME280;31254;51.680;5.394;2022-10-13T07:58:29;101751.16;;;13.68;81.36
45523;BME280;31254;51.680;5.394;2022-10-13T08:00:57;101750.72;;;13.73;81.42
45523;BME280;31254;51.680;5.394;2022-10-13T08:03:25;101726.63;;;13.66;81.12
45523;BME280;31254;51.680;5.394;2022-10-13T08:05:53;101739.97;;;13.89;80.73
45523;BME280;31254;51.680;5.394;2022-10-13T08:08:22;101714.03;;;13.83;80.50
45523;BME280;31254;51.680;5.394;2022-10-13T08:10:49;101745.53;;;14.07;80.36
45523;BME280;31254;51.680;5.394;2022-10-13T08:13:15;101715.84;;;13.93;80.03
45523;BME280;31254;51.680;5.394;2022-10-13T08:15:43;101746.03;;;14.20;80.11
45523;BME280;31254;51.680;5.394;2022-10-13T08:18:12;101740.56;;;14.20;79.76
45523;BME280;31254;51.680;5.394;2022-10-13T08:20:43;101737.97;;;14.19;79.94
45523;BME280;31254;51.680;5.394;2022-10-13T08:23:11;101752.53;;;14.29;79.80
45523;BME280;31254;51.680;5.394;2022-10-13T08:25:39;101743.97;;;14.32;79.67
45523;BME280;31254;51.680;5.394;2022-10-13T08:28:26;101745.22;;;14.38;79.61
45523;BME280;31254;51.680;5.394;2022-10-13T08:30:56;101724.03;;;14.30;79.43
45523;BME280;31254;51.680;5.394;2022-10-13T08:33:24;101702.00;;;14.40;79.06
45523;BME280;31254;51.680;5.394;2022-10-13T08:35:52;101740.25;;;14.79;78.57
45523;BME280;31254;51.680;5.394;2022-10-13T08:38:19;101742.13;;;14.96;78.01
45523;BME280;31254;51.680;5.394;2022-10-13T08:40:49;101745.03;;;15.13;77.49
45523;BME280;31254;51.680;5.394;2022-10-13T08:43:20;101734.66;;;15.25;77.20
45523;BME280;31254;51.680;5.394;2022-10-13T08:45:50;101711.09;;;15.22;77.06
45523;BME280;31254;51.680;5.394;2022-10-13T08:48:22;101734.78;;;15.41;76.47
45523;BME280;31254;51.680;5.394;2022-10-13T08:50:54;101737.75;;;15.48;76.61
45523;BME280;31254;51.680;5.394;2022-10-13T08:55:56;101687.75;;;15.26;76.23
45523;BME280;31254;51.680;5.394;2022-10-13T08:58:30;101726.78;;;15.56;76.31
45523;BME280;31254;51.680;5.394;2022-10-13T09:03:52;101740.06;;;15.61;76.18
45523;BME280;31254;51.680;5.394;2022-10-13T09:08:58;101721.94;;;15.50;76.60
45523;BME280;31254;51.680;5.394;2022-10-13T09:12:00;101722.28;;;15.47;76.67
45523;BME280;31254;51.680;5.394;2022-10-13T09:14:39;101725.19;;;15.45;76.57
45523;BME280;31254;51.680;5.394;2022-10-13T09:17:16;101723.47;;;15.44;76.70
45523;BME280;31254;51.680;5.394;2022-10-13T09:19:57;101712.56;;;15.34;76.95
45523;BME280;31254;51.680;5.394;2022-10-13T09:22:37;101730.69;;;15.45;76.65
45523;BME280;31254;51.680;5.394;2022-10-13T09:30:43;101725.09;;;15.55;76.88
45523;BME280;31254;51.680;5.394;2022-10-13T09:33:20;101723.41;;;15.62;76.25
45523;BME280;31254;51.680;5.394;2022-10-13T09:38:32;101687.00;;;15.68;75.42
45523;BME280;31254;51.680;5.394;2022-10-13T09:41:11;101718.16;;;16.03;75.07
45523;BME280;31254;51.680;5.394;2022-10-13T09:43:57;101714.25;;;16.14;74.65
45523;BME280;31254;51.680;5.394;2022-10-13T09:46:45;101703.09;;;16.24;74.53
45523;BME280;31254;51.680;5.394;2022-10-13T09:52:03;101692.91;;;16.16;74.39
45523;BME280;31254;51.680;5.394;2022-10-13T09:57:38;101712.88;;;16.10;74.92
45523;BME280;31254;51.680;5.394;2022-10-13T10:00:26;101707.09;;;15.95;75.61
45523;BME280;31254;51.680;5.394;2022-10-13T10:03:01;101703.63;;;15.85;75.63
45523;BME280;31254;51.680;5.394;2022-10-13T10:05:37;101712.28;;;15.72;76.03
45523;BME280;31254;51.680;5.394;2022-10-13T10:08:15;101713.09;;;15.64;75.90
45523;BME280;31254;51.680;5.394;2022-10-13T10:10:43;101703.09;;;15.55;76.70
45523;BME280;31254;51.680;5.394;2022-10-13T10:13:11;101701.94;;;15.66;76.91
45523;BME280;31254;51.680;5.394;2022-10-13T10:15:50;101674.22;;;15.33;77.27
45523;BME280;31254;51.680;5.394;2022-10-13T10:18:36;101694.16;;;15.35;77.50
45523;BME280;31254;51.680;5.394;2022-10-13T10:24:11;101615.22;;;14.75;77.92
45523;BME280;31254;51.680;5.394;2022-10-13T10:26:55;101686.06;;;15.07;78.29
45523;BME280;31254;51.680;5.394;2022-10-13T10:29:42;101707.25;;;15.15;78.47
45523;BME280;31254;51.680;5.394;2022-10-13T10:32:32;101707.72;;;15.10;78.63
45523;BME280;31254;51.680;5.394;2022-10-13T10:35:13;101700.47;;;15.27;79.28
45523;BME280;31254;51.680;5.394;2022-10-13T10:40:38;101697.25;;;15.32;79.25
45523;BME280;31254;51.680;5.394;2022-10-13T10:45:47;101674.50;;;15.22;78.74
45523;BME280;31254;51.680;5.394;2022-10-13T10:48:28;101695.22;;;15.34;78.72
45523;BME280;31254;51.680;5.394;2022-10-13T10:51:01;101689.16;;;15.30;79.13
45523;BME280;31254;51.680;5.394;2022-10-13T10:56:36;101687.59;;;15.28;78.90
45523;BME280;31254;51.680;5.394;2022-10-13T11:02:41;101662.91;;;15.10;78.98
45523;BME280;31254;51.680;5.394;2022-10-13T11:05:13;101651.75;;;15.11;78.94
45523;BME280;31254;51.680;5.394;2022-10-13T11:15:24;101671.91;;;15.46;79.04
45523;BME280;31254;51.680;5.394;2022-10-13T11:17:53;101674.03;;;15.52;78.71
45523;BME280;31254;51.680;5.394;2022-10-13T11:30:52;101653.34;;;15.75;78.94
45523;BME280;31254;51.680;5.394;2022-10-13T11:45:40;101636.81;;;15.66;78.82
45523;BME280;31254;51.680;5.394;2022-10-13T11:53:54;101643.19;;;15.75;78.86
45523;BME280;31254;51.680;5.394;2022-10-13T11:56:42;101626.84;;;15.73;79.14
45523;BME280;31254;51.680;5.394;2022-10-13T11:59:44;101639.47;;;15.76;79.10
45523;BME280;31254;51.680;5.394;2022-10-13T12:02:11;101630.16;;;15.77;78.69
45523;BME280;31254;51.680;5.394;2022-10-13T12:04:43;101624.50;;;15.79;79.08
45523;BME280;31254;51.680;5.394;2022-10-13T12:07:14;101623.84;;;15.85;79.04
45523;BME280;31254;51.680;5.394;2022-10-13T12:09:52;101615.25;;;15.88;78.84
45523;BME280;31254;51.680;5.394;2022-10-13T12:12:20;101621.13;;;15.93;78.77
45523;BME280;31254;51.680;5.394;2022-10-13T12:14:53;101609.44;;;15.91;78.79
45523;BME280;31254;51.680;5.394;2022-10-13T12:17:29;101619.44;;;16.00;78.69
45523;BME280;31254;51.680;5.394;2022-10-13T12:19:59;101618.06;;;16.04;78.33
45523;BME280;31254;51.680;5.394;2022-10-13T12:22:27;101591.84;;;15.84;78.60
45523;BME280;31254;51.680;5.394;2022-10-13T12:25:03;101605.63;;;15.92;78.57
45523;BME280;31254;51.680;5.394;2022-10-13T12:27:46;101619.78;;;16.05;78.47
45523;BME280;31254;51.680;5.394;2022-10-13T12:30:34;101617.22;;;16.04;78.83
45523;BME280;31254;51.680;5.394;2022-10-13T12:33:19;101610.31;;;16.08;78.75
45523;BME280;31254;51.680;5.394;2022-10-13T12:35:48;101591.78;;;16.10;78.70
45523;BME280;31254;51.680;5.394;2022-10-13T12:38:17;101607.78;;;16.23;78.57
45523;BME280;31254;51.680;5.394;2022-10-13T12:40:48;101606.09;;;16.30;78.60
45523;BME280;31254;51.680;5.394;2022-10-13T12:43:19;101579.38;;;16.14;78.70
45523;BME280;31254;51.680;5.394;2022-10-13T12:45:47;101578.88;;;16.11;79.02
45523;BME280;31254;51.680;5.394;2022-10-13T12:48:32;101594.22;;;16.21;78.82
45523;BME280;31254;51.680;5.394;2022-10-13T12:51:14;101601.91;;;16.18;78.89
45523;BME280;31254;51.680;5.394;2022-10-13T12:53:45;101594.69;;;16.08;79.11
45523;BME280;31254;51.680;5.394;2022-10-13T12:56:28;101599.84;;;16.12;79.40
45523;BME280;31254;51.680;5.394;2022-10-13T12:58:56;101590.38;;;16.06;79.20
45523;BME280;31254;51.680;5.394;2022-10-13T13:01:34;101587.97;;;16.03;79.25
45523;BME280;31254;51.680;5.394;2022-10-13T13:04:16;101585.22;;;16.03;79.81
45523;BME280;31254;51.680;5.394;2022-10-13T13:12:22;101591.72;;;15.94;79.88
45523;BME280;31254;51.680;5.394;2022-10-13T13:14:52;101561.22;;;15.79;79.72
45523;BME280;31254;51.680;5.394;2022-10-13T13:17:24;101593.94;;;15.90;80.03
45523;BME280;31254;51.680;5.394;2022-10-13T13:20:32;101589.09;;;15.84;79.99
45523;BME280;31254;51.680;5.394;2022-10-13T13:23:00;101588.25;;;15.83;81.09
45523;BME280;31254;51.680;5.394;2022-10-13T13:25:29;101580.44;;;15.70;81.27
45523;BME280;31254;51.680;5.394;2022-10-13T13:27:56;101587.78;;;15.62;81.26
45523;BME280;31254;51.680;5.394;2022-10-13T13:30:23;101575.19;;;15.51;81.40
45523;BME280;31254;51.680;5.394;2022-10-13T13:32:50;101564.13;;;15.34;81.67
45523;BME280;31254;51.680;5.394;2022-10-13T13:35:17;101583.41;;;15.43;81.86
45523;BME280;31254;51.680;5.394;2022-10-13T13:37:49;101564.78;;;15.28;81.99
45523;BME280;31254;51.680;5.394;2022-10-13T13:40:22;101585.13;;;15.44;81.88
45523;BME280;31254;51.680;5.394;2022-10-13T13:42:54;101574.81;;;15.46;81.82
45523;BME280;31254;51.680;5.394;2022-10-13T13:45:23;101580.69;;;15.51;81.92
45523;BME280;31254;51.680;5.394;2022-10-13T13:47:51;101581.41;;;15.61;81.50
45523;BME280;31254;51.680;5.394;2022-10-13T13:50:24;101565.97;;;15.60;81.34
45523;BME280;31254;51.680;5.394;2022-10-13T13:52:51;101547.22;;;15.64;82.86
45523;BME280;31254;51.680;5.394;2022-10-13T13:55:18;101585.34;;;15.93;82.16
45523;BME280;31254;51.680;5.394;2022-10-13T13:57:45;101573.00;;;16.05;81.69
45523;BME280;31254;51.680;5.394;2022-10-13T14:00:14;101577.69;;;16.21;81.12
45523;BME280;31254;51.680;5.394;2022-10-13T14:02:41;101558.44;;;16.30;80.45
45523;BME280;31254;51.680;5.394;2022-10-13T14:05:09;101568.91;;;16.34;80.86
45523;BME280;31254;51.680;5.394;2022-10-13T14:07:37;101572.00;;;16.23;80.81
45523;BME280;31254;51.680;5.394;2022-10-13T14:10:08;101531.72;;;16.05;81.68
45523;BME280;31254;51.680;5.394;2022-10-13T14:12:35;101564.47;;;16.41;81.81
45523;BME280;31254;51.680;5.394;2022-10-13T14:15:02;101575.13;;;16.36;81.52
45523;BME280;31254;51.680;5.394;2022-10-13T14:17:30;101554.28;;;16.17;81.74
45523;BME280;31254;51.680;5.394;2022-10-13T14:19:56;101577.16;;;16.18;81.74
45523;BME280;31254;51.680;5.394;2022-10-13T14:22:23;101574.22;;;16.11;81.80
45523;BME280;31254;51.680;5.394;2022-10-13T14:24:51;101558.34;;;15.88;81.87
45523;BME280;31254;51.680;5.394;2022-10-13T14:27:17;101575.38;;;15.92;82.37
45523;BME280;31254;51.680;5.394;2022-10-13T14:29:46;101578.66;;;15.87;82.33
45523;BME280;31254;51.680;5.394;2022-10-13T14:32:16;101559.09;;;15.72;82.31
45523;BME280;31254;51.680;5.394;2022-10-13T14:34:43;101568.81;;;15.85;83.32
45523;BME280;31254;51.680;5.394;2022-10-13T14:37:11;101565.03;;;15.78;83.38
45523;BME280;31254;51.680;5.394;2022-10-13T14:39:38;101553.94;;;15.69;83.30
45523;BME280;31254;51.680;5.394;2022-10-13T14:42:06;101562.03;;;15.71;82.86
45523;BME280;31254;51.680;5.394;2022-10-13T14:44:32;101553.94;;;15.69;82.79
45523;BME280;31254;51.680;5.394;2022-10-13T14:46:59;101558.84;;;15.84;82.73
45523;BME280;31254;51.680;5.394;2022-10-13T14:49:26;101554.91;;;15.86;82.37
45523;BME280;31254;51.680;5.394;2022-10-13T14:51:53;101557.97;;;15.83;82.72
45523;BME280;31254;51.680;5.394;2022-10-13T14:54:19;101526.25;;;15.63;82.78
45523;BME280;31254;51.680;5.394;2022-10-13T14:56:46;101548.16;;;15.81;83.02